Time;durP1;ratioP1;P1;durP2;ratioP2;P2;SDS_P1;SDS_P2;PMS_P1;PMS_P2;Temp;Humidity;BMP_temperature;BMP_pressure;BME280_temperature;BME280_humidity;BME280_pressure;Samples;Min_cycle;Max_cycle;Signal;HPM_P1;HPM_P2
2022/04/06 00:00:31;;;;;;;19.63;8.83;;;;;9.50;95558.00;;;;8352295;28;20252;-67
2022/04/06 00:04:35;;;;;;;15.65;7.53;;;;;9.50;95562.00;;;;8341943;28;20249;-67
2022/04/06 00:08:38;;;;;;;20.45;8.15;;;;;9.50;95561.00;;;;8345114;28;20232;-67
2022/04/06 00:12:43;;;;;;;15.07;7.27;;;;;9.50;95549.00;;;;8344868;28;20236;-67
2022/04/06 00:16:46;;;;;;;14.97;7.87;;;;;9.60;95555.00;;;;8349039;28;20233;-67
2022/04/06 00:20:49;;;;;;;18.20;8.67;;;;;9.50;95552.00;;;;8346400;28;20232;-67
2022/04/06 00:24:52;;;;;;;15.90;7.65;;;;;9.60;95554.00;;;;8339018;28;20232;-67
2022/04/06 00:28:57;;;;;;;13.15;7.72;;;;;9.60;95555.00;;;;8338717;28;20661;-67
2022/04/06 00:33:00;;;;;;;15.57;8.37;;;;;9.60;95548.00;;;;8346032;28;20560;-67
2022/04/06 00:37:04;;;;;;;13.43;7.83;;;;;9.60;95550.00;;;;8340829;28;20275;-67
2022/04/06 00:41:08;;;;;;;13.83;7.53;;;;;9.60;95540.00;;;;8345433;28;20239;-67
2022/04/06 00:45:12;;;;;;;14.37;8.17;;;;;9.70;95534.00;;;;8339472;28;20745;-67
2022/04/06 00:49:16;;;;;;;12.60;6.93;;;;;9.70;95534.00;;;;8342924;28;20252;-67
2022/04/06 00:53:19;;;;;;;12.70;7.07;;;;;9.70;95530.00;;;;8341673;28;20231;-66
2022/04/06 00:57:24;;;;;;;12.37;6.80;;;;;9.70;95523.00;;;;8347675;28;20238;-66
2022/04/06 01:01:31;;;;;;;10.93;6.53;;;;;9.70;95517.00;;;;8349549;28;20237;-66
2022/04/06 01:05:34;;;;;;;11.83;6.13;;;;;9.70;95517.00;;;;8343563;28;20240;-66
2022/04/06 01:09:38;;;;;;;11.57;5.95;;;;;9.80;95519.00;;;;8343709;28;20286;-66
2022/04/06 01:13:41;;;;;;;12.52;6.28;;;;;9.70;95509.00;;;;8345249;28;20225;-67
2022/04/06 01:17:46;;;;;;;9.20;5.40;;;;;9.80;95505.00;;;;8341333;28;20241;-67
2022/04/06 01:21:49;;;;;;;11.30;6.80;;;;;9.80;95504.00;;;;8340649;28;20266;-67
2022/04/06 01:25:53;;;;;;;10.13;6.30;;;;;9.80;95503.00;;;;8342447;28;20307;-67
2022/04/06 01:29:56;;;;;;;10.50;6.40;;;;;9.80;95503.00;;;;8347365;28;20229;-67
2022/04/06 01:34:00;;;;;;;9.40;5.67;;;;;9.80;95506.00;;;;8344648;28;20220;-67
2022/04/06 01:38:03;;;;;;;9.48;6.28;;;;;9.80;95508.00;;;;8340484;28;20328;-67
2022/04/06 01:42:09;;;;;;;11.18;6.03;;;;;9.90;95495.00;;;;8338908;28;20229;-67
2022/04/06 01:46:12;;;;;;;9.93;6.07;;;;;9.80;95492.00;;;;8337914;28;20304;-67
2022/04/06 01:54:36;;;;;;;11.20;6.30;;;;;9.80;95491.00;;;;8342429;28;20299;-66
2022/04/06 01:58:41;;;;;;;10.93;6.72;;;;;9.80;95482.00;;;;8348551;28;20238;-67
2022/04/06 02:02:48;;;;;;;8.33;5.73;;;;;9.80;95484.00;;;;8343862;28;20585;-67
2022/04/06 02:06:52;;;;;;;9.33;5.90;;;;;9.80;95482.00;;;;8339994;28;20238;-67
2022/04/06 02:10:55;;;;;;;10.45;6.63;;;;;9.80;95487.00;;;;8341001;28;20233;-67
2022/04/06 02:15:00;;;;;;;11.10;6.50;;;;;9.80;95474.00;;;;8340133;28;20236;-67
2022/04/06 02:19:03;;;;;;;10.20;7.27;;;;;9.80;95485.00;;;;8340786;28;20950;-67
2022/04/06 02:23:07;;;;;;;10.90;7.03;;;;;9.90;95480.00;;;;8341117;28;20232;-66
2022/04/06 02:27:10;;;;;;;12.87;7.53;;;;;9.80;95471.00;;;;8349892;28;20232;-67
2022/04/06 02:31:14;;;;;;;11.40;6.70;;;;;9.80;95464.00;;;;8346009;28;20308;-66
2022/04/06 02:35:18;;;;;;;10.93;7.20;;;;;9.80;95464.00;;;;8342944;28;20811;-66
2022/04/06 02:39:21;;;;;;;13.40;7.77;;;;;9.80;95460.00;;;;8348641;28;20228;-66
2022/04/06 02:43:25;;;;;;;13.55;7.38;;;;;9.90;95469.00;;;;8346504;28;20228;-66
2022/04/06 02:47:29;;;;;;;12.90;7.77;;;;;9.90;95463.00;;;;8348362;28;20228;-66
2022/04/06 02:51:33;;;;;;;13.90;7.70;;;;;9.90;95462.00;;;;8349050;28;20224;-68
2022/04/06 02:55:36;;;;;;;11.43;6.73;;;;;9.90;95464.00;;;;8351881;28;20228;-65
2022/04/06 02:59:40;;;;;;;11.38;6.90;;;;;9.90;95450.00;;;;8354197;28;20608;-67
2022/04/06 03:03:44;;;;;;;10.60;7.03;;;;;9.90;95454.00;;;;8351648;22;20235;-66
2022/04/06 03:07:47;;;;;;;12.55;7.07;;;;;9.90;95458.00;;;;8342807;28;20580;-67
2022/04/06 03:11:50;;;;;;;13.68;7.38;;;;;9.90;95450.00;;;;8346649;28;20220;-67
2022/04/06 03:15:54;;;;;;;10.05;6.70;;;;;9.90;95450.00;;;;8349213;28;20233;-67
2022/04/06 03:19:58;;;;;;;12.52;6.93;;;;;9.90;95444.00;;;;8339765;28;20238;-67
2022/04/06 03:24:02;;;;;;;11.93;7.53;;;;;9.90;95442.00;;;;8340558;28;20669;-66
2022/04/06 03:28:05;;;;;;;10.55;7.10;;;;;9.90;95441.00;;;;8344499;28;20225;-67
2022/04/06 03:32:09;;;;;;;10.75;6.57;;;;;9.90;95439.00;;;;8346548;28;20237;-67
2022/04/06 03:36:14;;;;;;;11.43;6.67;;;;;9.90;95435.00;;;;8341423;28;20308;-67
2022/04/06 03:40:17;;;;;;;13.05;7.68;;;;;9.90;95436.00;;;;8335562;28;20217;-67
2022/04/06 03:44:20;;;;;;;11.05;6.75;;;;;9.90;95430.00;;;;8343943;28;20248;-66
2022/04/06 03:48:23;;;;;;;12.30;7.10;;;;;9.90;95434.00;;;;8344274;28;20924;-67
2022/04/06 03:52:28;;;;;;;8.90;6.27;;;;;9.90;95438.00;;;;8342936;28;20871;-67
2022/04/06 03:56:31;;;;;;;10.33;6.67;;;;;9.90;95434.00;;;;8338936;28;20232;-68
2022/04/06 04:00:34;;;;;;;11.25;7.47;;;;;9.90;95433.00;;;;8341666;28;20227;-67
2022/04/06 04:04:38;;;;;;;11.63;7.20;;;;;9.90;95428.00;;;;8340790;28;20651;-68
2022/04/06 04:08:42;;;;;;;9.93;6.95;;;;;9.90;95429.00;;;;8330009;28;20227;-68
2022/04/06 04:12:45;;;;;;;11.13;7.13;;;;;10.00;95434.00;;;;8329714;28;20865;-68
2022/04/06 04:16:49;;;;;;;9.57;7.03;;;;;10.00;95439.00;;;;8342113;28;20266;-67
2022/04/06 04:21:31;;;;;;;14.03;7.63;;;;;10.00;95433.00;;;;8336629;28;20307;-68
2022/04/06 04:25:16;;;;;;;11.30;7.40;;;;;9.90;95430.00;;;;8341169;28;20231;-68
2022/04/06 04:29:20;;;;;;;13.20;7.93;;;;;10.00;95431.00;;;;8341138;28;20237;-68
2022/04/06 04:33:23;;;;;;;18.63;8.30;;;;;9.90;95431.00;;;;8341965;28;20240;-67
2022/04/06 04:37:27;;;;;;;11.73;7.40;;;;;10.00;95423.00;;;;8328927;28;20245;-66
2022/04/06 04:41:32;;;;;;;11.83;7.60;;;;;10.00;95425.00;;;;8340836;28;20227;-66
2022/04/06 04:45:35;;;;;;;13.90;7.43;;;;;10.00;95427.00;;;;8323921;28;20236;-67
2022/04/06 04:49:39;;;;;;;11.07;7.60;;;;;10.00;95424.00;;;;8339486;28;20609;-66
2022/04/06 04:53:42;;;;;;;9.90;7.47;;;;;10.00;95435.00;;;;8345271;28;20542;-67
2022/04/06 04:57:47;;;;;;;12.40;7.53;;;;;10.00;95427.00;;;;8344176;28;20628;-67
2022/04/06 05:01:50;;;;;;;12.07;7.67;;;;;10.00;95432.00;;;;8340346;28;20233;-66
2022/04/06 05:05:56;;;;;;;14.23;7.85;;;;;10.00;95431.00;;;;8333987;28;20252;-67
2022/04/06 05:10:01;;;;;;;11.60;7.55;;;;;10.00;95433.00;;;;8340485;28;20279;-67
2022/04/06 05:14:05;;;;;;;10.03;7.60;;;;;10.00;95428.00;;;;8339122;28;20227;-67
2022/04/06 05:18:09;;;;;;;11.03;7.80;;;;;10.00;95424.00;;;;8339985;28;20229;-67
2022/04/06 05:22:12;;;;;;;12.20;7.83;;;;;10.00;95425.00;;;;8340899;28;20232;-67
2022/04/06 05:26:15;;;;;;;12.82;8.30;;;;;10.10;95415.00;;;;8335634;28;20293;-69
2022/04/06 05:30:23;;;;;;;13.63;8.50;;;;;10.10;95424.00;;;;8334978;28;20224;-69
2022/04/06 05:34:26;;;;;;;14.43;8.73;;;;;10.10;95425.00;;;;8338619;28;20225;-67
2022/04/06 05:38:30;;;;;;;16.80;9.15;;;;;10.20;95417.00;;;;8336875;28;20232;-67
2022/04/06 05:42:34;;;;;;;12.57;8.20;;;;;10.30;95419.00;;;;8339304;28;20967;-68
2022/04/06 05:46:39;;;;;;;12.30;8.38;;;;;10.30;95422.00;;;;8330277;28;20232;-67
2022/04/06 05:50:42;;;;;;;14.82;8.80;;;;;10.30;95423.00;;;;8339822;28;20325;-68
2022/04/06 05:54:45;;;;;;;16.48;9.50;;;;;10.40;95423.00;;;;8338670;28;21121;-68
2022/04/06 05:58:49;;;;;;;12.02;8.30;;;;;10.50;95427.00;;;;8334741;28;20234;-68
2022/04/06 06:02:53;;;;;;;12.60;8.40;;;;;10.50;95428.00;;;;8338138;28;20569;-68
2022/04/06 06:06:57;;;;;;;12.02;8.30;;;;;10.60;95430.00;;;;8333196;28;20251;-68
2022/04/06 06:11:00;;;;;;;11.73;8.27;;;;;10.60;95427.00;;;;8342375;28;20227;-67
2022/04/06 06:15:06;;;;;;;11.83;8.00;;;;;10.60;95423.00;;;;8337182;28;20706;-67
2022/04/06 06:19:10;;;;;;;12.10;8.05;;;;;10.60;95423.00;;;;8340313;28;20234;-67
2022/04/06 06:23:14;;;;;;;13.90;8.60;;;;;10.80;95426.00;;;;8333666;28;20724;-67
2022/04/06 06:27:19;;;;;;;12.00;8.52;;;;;10.80;95426.00;;;;8331280;28;20229;-66
2022/04/06 06:31:23;;;;;;;11.50;8.48;;;;;10.90;95421.00;;;;8343828;28;20221;-67
2022/04/06 06:35:28;;;;;;;13.45;7.57;;;;;11.00;95427.00;;;;8341022;28;20232;-67
2022/04/06 06:39:31;;;;;;;11.50;8.07;;;;;11.00;95422.00;;;;8328722;28;20235;-67
2022/04/06 06:43:34;;;;;;;12.57;8.80;;;;;11.00;95421.00;;;;8326943;28;20236;-67
2022/04/06 06:47:37;;;;;;;10.43;7.45;;;;;11.10;95425.00;;;;8328508;28;20981;-68
2022/04/06 06:51:42;;;;;;;10.27;7.05;;;;;11.20;95418.00;;;;8325543;28;20218;-67
2022/04/06 06:55:45;;;;;;;11.13;7.47;;;;;11.30;95420.00;;;;8330679;28;20693;-68
2022/04/06 06:59:48;;;;;;;9.32;7.20;;;;;11.40;95415.00;;;;8330948;28;20255;-68
2022/04/06 07:03:51;;;;;;;12.07;7.03;;;;;11.50;95419.00;;;;8323558;28;20575;-68
2022/04/06 07:07:59;;;;;;;11.48;7.93;;;;;11.60;95422.00;;;;8328276;28;20655;-68
2022/04/06 07:12:02;;;;;;;13.63;8.25;;;;;11.60;95421.00;;;;8330933;28;20319;-68
2022/04/06 07:16:07;;;;;;;12.85;7.35;;;;;11.60;95413.00;;;;8337060;28;20234;-68
2022/04/06 07:20:11;;;;;;;6.80;6.10;;;;;11.80;95410.00;;;;8335494;28;21720;-68
2022/04/06 07:24:15;;;;;;;8.80;6.72;;;;;11.90;95414.00;;;;8338789;28;20259;-68
2022/04/06 07:28:19;;;;;;;10.48;7.30;;;;;11.90;95412.00;;;;8335816;28;20244;-68
2022/04/06 07:32:22;;;;;;;11.70;7.05;;;;;11.90;95416.00;;;;8345803;28;20309;-68
2022/04/06 07:36:25;;;;;;;8.15;6.68;;;;;11.90;95403.00;;;;8344992;28;20308;-69
2022/04/06 07:40:30;;;;;;;8.63;6.03;;;;;12.00;95407.00;;;;8343134;28;20240;-69
2022/04/06 07:44:33;;;;;;;7.47;5.78;;;;;12.00;95399.00;;;;8353721;28;20231;-69
2022/04/06 07:48:37;;;;;;;10.60;6.15;;;;;12.10;95406.00;;;;8331522;28;20341;-68
2022/04/06 07:52:41;;;;;;;10.43;6.10;;;;;12.20;95405.00;;;;8337738;28;20881;-67
2022/04/06 07:56:45;;;;;;;13.50;6.57;;;;;12.40;95409.00;;;;8337830;28;20311;-68
2022/04/06 08:00:48;;;;;;;7.03;5.78;;;;;12.50;95405.00;;;;8339029;28;20653;-68
2022/04/06 08:04:51;;;;;;;10.05;5.85;;;;;12.50;95414.00;;;;8332453;28;20242;-69
2022/04/06 08:08:55;;;;;;;7.88;5.57;;;;;12.50;95404.00;;;;8334250;28;20231;-69
2022/04/06 08:12:59;;;;;;;7.20;4.97;;;;;12.50;95416.00;;;;8346060;28;20325;-70
2022/04/06 08:17:04;;;;;;;8.80;5.18;;;;;12.50;95411.00;;;;8338575;28;20644;-71
2022/04/06 08:21:08;;;;;;;7.18;4.97;;;;;12.60;95411.00;;;;8332774;28;20240;-71
2022/04/06 08:25:12;;;;;;;5.28;4.72;;;;;12.80;95408.00;;;;8334821;28;20237;-70
2022/04/06 08:29:36;;;;;;;7.45;5.88;;;;;13.00;95411.00;;;;8334372;28;20277;-69
2022/04/06 08:33:40;;;;;;;8.73;5.72;;;;;13.30;95413.00;;;;8331840;28;20302;-70
2022/04/06 08:37:43;;;;;;;6.70;5.47;;;;;13.50;95410.00;;;;8339107;28;20432;-71
2022/04/06 08:41:46;;;;;;;9.25;6.38;;;;;13.60;95410.00;;;;8334871;28;20282;-70
2022/04/06 08:45:51;;;;;;;8.88;5.45;;;;;13.80;95405.00;;;;8333076;28;20221;-70
2022/04/06 08:49:56;;;;;;;6.57;5.13;;;;;13.80;95407.00;;;;8338841;28;20227;-72
2022/04/06 08:53:59;;;;;;;6.93;5.10;;;;;13.70;95411.00;;;;8337800;28;20236;-72
2022/04/06 08:58:03;;;;;;;6.95;4.55;;;;;13.70;95402.00;;;;8338289;28;20239;-71
2022/04/06 09:02:10;;;;;;;5.25;4.30;;;;;13.80;95413.00;;;;8341993;28;20698;-71
2022/04/06 09:06:14;;;;;;;4.72;4.15;;;;;14.00;95416.00;;;;8335781;28;20672;-70
2022/04/06 09:10:17;;;;;;;5.38;4.30;;;;;14.30;95410.00;;;;8344997;28;20240;-69
2022/04/06 09:14:30;;;;;;;6.13;4.20;;;;;14.50;95410.00;;;;8346886;28;20304;-69
2022/04/06 09:18:35;;;;;;;4.50;4.10;;;;;14.80;95402.00;;;;8334256;28;20248;-72
2022/04/06 09:22:39;;;;;;;5.93;4.32;;;;;14.90;95405.00;;;;8342179;28;20220;-70
2022/04/06 09:26:42;;;;;;;4.97;4.47;;;;;14.80;95404.00;;;;8337854;28;20232;-70
2022/04/06 09:30:46;;;;;;;5.05;4.55;;;;;14.50;95401.00;;;;8342754;28;20220;-70
2022/04/06 09:34:51;;;;;;;5.43;4.32;;;;;14.50;95399.00;;;;8338319;28;20955;-70
2022/04/06 09:38:55;;;;;;;4.95;4.43;;;;;14.40;95397.00;;;;8342970;28;20697;-71
2022/04/06 09:42:58;;;;;;;4.57;4.00;;;;;14.50;95391.00;;;;8336460;28;20225;-71
2022/04/06 09:51:37;;;;;;;4.25;3.80;;;;;15.00;95384.00;;;;8331955;28;21007;-73
2022/04/06 09:55:41;;;;;;;6.80;3.97;;;;;15.20;95381.00;;;;8337430;28;20228;-73
2022/04/06 09:59:46;;;;;;;4.72;4.15;;;;;15.00;95380.00;;;;8341489;28;20225;-73
2022/04/06 10:03:53;;;;;;;4.00;3.70;;;;;15.10;95363.00;;;;8336008;28;20246;-72
2022/04/06 10:08:01;;;;;;;4.18;3.72;;;;;15.20;95367.00;;;;8335348;28;20681;-71
2022/04/06 10:12:05;;;;;;;3.80;3.50;;;;;15.40;95358.00;;;;8334165;28;20733;-70
2022/04/06 10:16:12;;;;;;;4.32;3.72;;;;;15.60;95354.00;;;;8340359;28;20311;-70
2022/04/06 10:20:25;;;;;;;3.72;3.33;;;;;15.60;95347.00;;;;8331487;28;20320;-71
2022/04/06 10:24:44;;;;;;;5.15;3.60;;;;;15.60;95345.00;;;;8329830;28;20247;-72
2022/04/06 10:28:49;;;;;;;4.22;3.80;;;;;15.50;95347.00;;;;8334524;28;20308;-71
2022/04/06 10:32:53;;;;;;;3.90;3.47;;;;;15.70;95330.00;;;;8333681;28;20563;-72
2022/04/06 10:37:16;;;;;;;4.68;2.90;;;;;15.60;95332.00;;;;8335934;28;20229;-72
2022/04/06 10:41:20;;;;;;;3.60;2.90;;;;;15.70;95319.00;;;;8332351;28;21010;-72
2022/04/06 10:45:43;;;;;;;2.92;2.70;;;;;16.20;95322.00;;;;8336549;28;20900;-71
2022/04/06 10:50:24;;;;;;;4.72;3.53;;;;;16.40;95318.00;;;;8331253;28;20247;-71
2022/04/06 10:54:43;;;;;;;2.90;2.70;;;;;16.40;95319.00;;;;8340827;28;20259;-71
2022/04/06 10:59:09;;;;;;;3.80;2.72;;;;;16.40;95311.00;;;;8341789;28;20232;-70
2022/04/06 11:03:18;;;;;;;3.42;3.13;;;;;16.30;95308.00;;;;8332136;28;20735;-71
2022/04/06 11:12:10;;;;;;;4.13;2.60;;;;;16.50;95296.00;;;;8335381;28;20252;-71
2022/04/06 11:16:40;;;;;;;3.38;2.47;;;;;16.80;95293.00;;;;8338519;28;20336;-70
2022/04/06 11:20:43;;;;;;;2.50;2.30;;;;;16.80;95291.00;;;;8342828;28;20240;-70
2022/04/06 11:24:49;;;;;;;3.50;2.30;;;;;16.80;95292.00;;;;8343363;28;20227;-69
2022/04/06 11:28:57;;;;;;;2.17;2.08;;;;;16.90;95271.00;;;;8343225;28;20224;-70
2022/04/06 11:33:02;;;;;;;2.42;2.22;;;;;16.80;95275.00;;;;8337846;28;20217;-70
2022/04/06 11:37:06;;;;;;;3.80;2.20;;;;;16.90;95258.00;;;;8337963;28;20233;-72
2022/04/06 11:41:11;;;;;;;2.20;2.00;;;;;16.90;95250.00;;;;8340783;28;20319;-69
2022/04/06 11:45:20;;;;;;;2.00;1.90;;;;;16.90;95256.00;;;;8341841;28;20251;-70
2022/04/06 11:49:24;;;;;;;2.05;1.85;;;;;17.20;95251.00;;;;8344223;28;20267;-70
2022/04/06 11:53:28;;;;;;;1.60;1.50;;;;;17.30;95244.00;;;;8337273;28;20225;-70
2022/04/06 11:57:38;;;;;;;1.50;1.40;;;;;17.50;95232.00;;;;8334254;28;20232;-71
2022/04/06 12:01:42;;;;;;;1.48;1.38;;;;;17.90;95230.00;;;;8342896;28;20750;-71
2022/04/06 12:05:47;;;;;;;2.13;1.30;;;;;17.90;95223.00;;;;8339169;28;20246;-72
2022/04/06 12:09:51;;;;;;;1.40;1.40;;;;;17.90;95221.00;;;;8349456;28;20712;-71
2022/04/06 12:13:56;;;;;;;2.50;1.50;;;;;17.90;95214.00;;;;8353569;28;20228;-72
2022/04/06 12:18:00;;;;;;;1.60;1.60;;;;;18.20;95213.00;;;;8339000;28;20228;-71
2022/04/06 12:22:07;;;;;;;2.00;1.77;;;;;18.30;95202.00;;;;8338127;28;20228;-71
2022/04/06 12:26:11;;;;;;;1.60;1.50;;;;;18.30;95189.00;;;;8336864;28;20221;-72
2022/04/06 12:30:15;;;;;;;1.67;1.58;;;;;18.10;95183.00;;;;8335487;28;20233;-72
2022/04/06 12:34:33;;;;;;;1.65;1.55;;;;;18.10;95184.00;;;;8340367;28;20698;-72
2022/04/06 12:38:36;;;;;;;1.92;1.70;;;;;18.30;95171.00;;;;8336498;28;20304;-72
2022/04/06 12:42:41;;;;;;;1.80;1.70;;;;;18.10;95179.00;;;;8332442;28;20229;-72
2022/04/06 12:46:47;;;;;;;1.90;1.77;;;;;18.20;95164.00;;;;8339409;28;20383;-72
2022/04/06 12:50:50;;;;;;;2.92;1.88;;;;;18.40;95160.00;;;;8326707;28;20248;-72
2022/04/06 12:55:01;;;;;;;1.80;1.70;;;;;18.60;95154.00;;;;8338126;28;20559;-71
2022/04/06 12:59:09;;;;;;;2.97;1.75;;;;;18.90;95134.00;;;;8334579;28;20228;-71
2022/04/06 13:03:15;;;;;;;1.83;1.73;;;;;19.00;95136.00;;;;8327682;28;20323;-71
2022/04/06 13:07:19;;;;;;;1.85;1.60;;;;;18.80;95138.00;;;;8337932;28;20780;-70
2022/04/06 13:11:38;;;;;;;1.80;1.70;;;;;19.10;95123.00;;;;8333928;28;20332;-71
2022/04/06 13:15:41;;;;;;;1.70;1.60;;;;;19.00;95129.00;;;;8342933;28;20240;-70
2022/04/06 13:19:46;;;;;;;1.73;1.60;;;;;18.80;95122.00;;;;8340416;28;20217;-71
2022/04/06 13:23:49;;;;;;;2.28;1.50;;;;;18.90;95124.00;;;;8339098;28;20932;-71
2022/04/06 13:27:52;;;;;;;1.52;1.50;;;;;19.10;95115.00;;;;8329254;28;20229;-71
2022/04/06 13:31:55;;;;;;;1.73;1.63;;;;;19.20;95107.00;;;;8342645;28;20339;-71
2022/04/06 13:36:00;;;;;;;1.80;1.70;;;;;19.10;95092.00;;;;8339740;28;20225;-71
2022/04/06 13:40:03;;;;;;;1.83;1.73;;;;;19.10;95088.00;;;;8336310;28;20591;-71
2022/04/06 13:44:07;;;;;;;2.08;1.70;;;;;19.30;95079.00;;;;8342499;28;20319;-71
2022/04/06 13:48:10;;;;;;;1.73;1.63;;;;;19.40;95083.00;;;;8328695;28;20320;-71
2022/04/06 13:52:15;;;;;;;1.60;1.50;;;;;19.50;95066.00;;;;8335749;28;20233;-71
2022/04/06 13:56:18;;;;;;;1.95;1.77;;;;;19.90;95068.00;;;;8329701;28;20657;-71
2022/04/06 14:00:21;;;;;;;1.73;1.65;;;;;20.00;95064.00;;;;8344767;28;20239;-71
2022/04/06 14:04:25;;;;;;;1.70;1.60;;;;;19.70;95068.00;;;;8340002;28;20319;-70
2022/04/06 14:08:31;;;;;;;1.83;1.80;;;;;20.00;95056.00;;;;8337165;28;20277;-71
2022/04/06 14:12:34;;;;;;;1.95;1.85;;;;;20.10;95061.00;;;;8328886;28;20233;-69
2022/04/06 14:16:39;;;;;;;1.90;1.75;;;;;20.20;95044.00;;;;8343594;28;20228;-70
2022/04/06 14:20:43;;;;;;;1.83;1.73;;;;;20.50;95038.00;;;;8336091;28;20243;-69
2022/04/06 14:29:04;;;;;;;1.88;1.77;;;;;20.40;95026.00;;;;8336212;28;20674;-70
2022/04/06 14:33:08;;;;;;;2.00;1.90;;;;;20.30;95020.00;;;;8335790;28;20315;-70
2022/04/06 14:37:11;;;;;;;1.55;1.45;;;;;20.20;95028.00;;;;8348966;28;20232;-70
2022/04/06 14:41:16;;;;;;;2.08;1.42;;;;;20.50;95011.00;;;;8340859;28;20335;-69
2022/04/06 14:45:19;;;;;;;3.13;1.33;;;;;20.60;95005.00;;;;8340270;28;20976;-68
2022/04/06 14:49:23;;;;;;;2.20;1.40;;;;;20.30;95017.00;;;;8340445;28;20240;-69
2022/04/06 14:53:27;;;;;;;2.13;1.42;;;;;20.20;95007.00;;;;8346715;28;20223;-68
2022/04/06 14:57:31;;;;;;;1.50;1.50;;;;;20.40;95002.00;;;;8338314;28;20764;-68
2022/04/06 15:01:35;;;;;;;1.40;1.38;;;;;20.00;95000.00;;;;8337513;28;20231;-69
2022/04/06 15:05:38;;;;;;;2.15;1.50;;;;;19.60;95005.00;;;;8336679;28;20797;-69
2022/04/06 15:09:41;;;;;;;2.45;1.40;;;;;19.60;95002.00;;;;8342519;28;20306;-68
2022/04/06 15:13:46;;;;;;;1.58;1.48;;;;;19.60;94995.00;;;;8337721;28;20224;-69
2022/04/06 15:17:49;;;;;;;1.50;1.40;;;;;19.80;94999.00;;;;8349416;28;20223;-69
2022/04/06 15:21:52;;;;;;;1.55;1.45;;;;;19.80;94989.00;;;;8343728;28;20679;-69
2022/04/06 15:25:55;;;;;;;1.38;1.23;;;;;19.90;94982.00;;;;8338382;28;20783;-70
2022/04/06 15:30:00;;;;;;;1.83;1.42;;;;;19.80;94990.00;;;;8338033;28;20239;-69
2022/04/06 15:34:03;;;;;;;1.50;1.40;;;;;19.40;94985.00;;;;8339210;28;20217;-69
2022/04/06 15:38:07;;;;;;;1.40;1.40;;;;;19.20;94981.00;;;;8339074;28;20237;-69
2022/04/06 15:42:10;;;;;;;1.40;1.40;;;;;19.10;94974.00;;;;8330590;28;20273;-69
2022/04/06 15:46:15;;;;;;;1.40;1.40;;;;;19.30;94981.00;;;;8329742;28;20251;-68
2022/04/06 15:50:19;;;;;;;1.30;1.30;;;;;19.30;94979.00;;;;8333968;28;20822;-69
2022/04/06 15:54:22;;;;;;;1.48;1.48;;;;;19.30;94976.00;;;;8331896;28;20225;-67
2022/04/06 15:58:26;;;;;;;1.90;1.40;;;;;19.50;94974.00;;;;8333470;28;20220;-69
2022/04/06 16:02:31;;;;;;;2.72;1.50;;;;;19.40;94961.00;;;;8333441;28;20682;-69
2022/04/06 16:06:35;;;;;;;2.28;1.40;;;;;19.70;94964.00;;;;8336198;28;20225;-69
2022/04/06 16:10:38;;;;;;;1.50;1.40;;;;;20.20;94954.00;;;;8337772;28;20779;-69
2022/04/06 16:14:42;;;;;;;1.13;1.13;;;;;20.40;94954.00;;;;8335907;28;20223;-69
2022/04/06 16:18:47;;;;;;;1.30;1.30;;;;;20.30;94946.00;;;;8334042;28;20231;-71
2022/04/06 16:22:50;;;;;;;1.17;1.17;;;;;20.30;94953.00;;;;8340448;28;20320;-68
2022/04/06 16:26:54;;;;;;;1.40;1.30;;;;;20.00;94951.00;;;;8344041;28;21493;-67
2022/04/06 16:30:57;;;;;;;1.20;1.20;;;;;20.00;94946.00;;;;8342033;28;20378;-69
2022/04/06 16:35:02;;;;;;;1.30;1.30;;;;;20.10;94947.00;;;;8328688;28;20236;-69
2022/04/06 16:39:07;;;;;;;1.20;1.20;;;;;20.30;94942.00;;;;8336535;28;21061;-68
2022/04/06 16:43:10;;;;;;;1.42;1.33;;;;;20.10;94929.00;;;;8334932;28;20359;-70
2022/04/06 16:47:13;;;;;;;1.23;1.10;;;;;19.70;94936.00;;;;8329779;28;20232;-68
2022/04/06 16:55:45;;;;;;;3.20;1.10;;;;;18.40;94937.00;;;;8338233;28;20216;-67
2022/04/06 16:59:48;;;;;;;1.88;1.77;;;;;17.90;94924.00;;;;8334558;28;20690;-70
2022/04/06 17:03:52;;;;;;;2.42;1.65;;;;;17.60;94922.00;;;;8340374;28;20645;-70
2022/04/06 17:07:57;;;;;;;20.25;12.85;;;;;17.30;94919.00;;;;8341939;28;20255;-68
2022/04/06 17:12:00;;;;;;;39.72;21.67;;;;;17.10;94906.00;;;;8341991;28;20233;-68
2022/04/06 17:16:04;;;;;;;129.93;73.45;;;;;16.90;94916.00;;;;8323518;28;20225;-67
2022/04/06 17:20:08;;;;;;;21.92;12.48;;;;;16.80;94922.00;;;;8327212;28;20233;-68
2022/04/06 17:24:15;;;;;;;79.38;34.08;;;;;16.70;94918.00;;;;8326497;28;20232;-72
2022/04/06 17:28:19;;;;;;;37.22;33.28;;;;;16.60;94919.00;;;;8335055;28;20220;-66
2022/04/06 17:32:23;;;;;;;261.50;160.13;;;;;16.50;94908.00;;;;8335293;28;20229;-68
2022/04/06 17:36:27;;;;;;;197.82;128.63;;;;;16.40;94919.00;;;;8341022;28;20260;-68
2022/04/06 17:40:32;;;;;;;3.28;2.88;;;;;16.30;94915.00;;;;8336914;28;20221;-67
2022/04/06 17:44:35;;;;;;;2.22;2.03;;;;;16.20;94912.00;;;;8342169;28;20325;-68
2022/04/06 17:48:39;;;;;;;49.33;31.38;;;;;16.10;94907.00;;;;8334217;28;20979;-68
2022/04/06 17:52:44;;;;;;;1.80;1.70;;;;;16.00;94909.00;;;;8328868;28;20303;-70
2022/04/06 17:56:49;;;;;;;2.90;2.70;;;;;15.90;94916.00;;;;8341689;28;20299;-68
2022/04/06 18:00:52;;;;;;;3.10;1.55;;;;;15.80;94923.00;;;;8341451;28;20223;-69
2022/04/06 18:04:55;;;;;;;1.20;1.20;;;;;15.70;94913.00;;;;8340737;28;20233;-68
2022/04/06 18:08:59;;;;;;;1.30;1.30;;;;;15.60;94919.00;;;;8337229;28;20228;-70
2022/04/06 18:17:24;;;;;;;1.60;1.50;;;;;15.10;94918.00;;;;8343641;28;20231;-68
2022/04/06 18:21:28;;;;;;;7.10;2.88;;;;;14.80;94917.00;;;;8327945;28;20233;-69
2022/04/06 18:25:36;;;;;;;2.58;2.00;;;;;14.50;94911.00;;;;8323874;28;20272;-68
2022/04/06 18:29:41;;;;;;;2.00;1.90;;;;;14.30;94916.00;;;;8332354;28;20225;-69
2022/04/06 18:33:47;;;;;;;3.75;2.28;;;;;14.10;94908.00;;;;8335355;28;20236;-69
2022/04/06 18:37:51;;;;;;;3.45;1.48;;;;;13.80;94916.00;;;;8336662;28;20232;-69
2022/04/06 18:41:54;;;;;;;1.85;1.70;;;;;13.50;94915.00;;;;8344931;28;20242;-70
2022/04/06 18:45:59;;;;;;;2.10;1.90;;;;;13.20;94912.00;;;;8336591;28;20242;-68
2022/04/06 18:50:05;;;;;;;4.20;2.72;;;;;13.00;94918.00;;;;8337328;28;20292;-68
2022/04/06 18:54:08;;;;;;;3.95;2.30;;;;;12.80;94921.00;;;;8336069;28;20227;-69
2022/04/06 18:58:13;;;;;;;2.10;1.90;;;;;12.50;94921.00;;;;8333650;28;20233;-69
2022/04/06 19:02:18;;;;;;;2.40;2.08;;;;;12.30;94922.00;;;;8337213;28;20322;-68
2022/04/06 19:06:25;;;;;;;2.75;2.40;;;;;12.10;94918.00;;;;8324606;28;20261;-68
2022/04/06 19:10:29;;;;;;;2.58;2.20;;;;;12.10;94919.00;;;;8339138;28;20300;-69
2022/04/06 19:14:32;;;;;;;1.95;1.85;;;;;11.90;94917.00;;;;8344236;28;20254;-68
2022/04/06 19:18:37;;;;;;;2.20;2.10;;;;;11.70;94927.00;;;;8337153;28;20231;-69
2022/04/06 19:22:40;;;;;;;1.90;1.80;;;;;11.40;94920.00;;;;8320439;28;20237;-69
2022/04/06 19:26:43;;;;;;;2.42;2.30;;;;;11.10;94923.00;;;;8324990;28;20693;-71
2022/04/06 19:30:47;;;;;;;2.65;2.35;;;;;10.80;94916.00;;;;8344821;28;20229;-70
2022/04/06 19:34:51;;;;;;;2.65;2.40;;;;;10.60;94920.00;;;;8342839;28;20230;-69
2022/04/06 19:38:55;;;;;;;3.67;3.28;;;;;10.40;94917.00;;;;8341875;28;20232;-69
2022/04/06 19:42:58;;;;;;;6.78;4.03;;;;;10.20;94921.00;;;;8344785;28;20237;-68
2022/04/06 19:47:03;;;;;;;6.78;4.28;;;;;10.10;94916.00;;;;8345728;28;20249;-70
2022/04/06 19:51:08;;;;;;;7.43;3.78;;;;;10.00;94922.00;;;;8341092;28;20225;-67
2022/04/06 19:55:11;;;;;;;3.28;2.97;;;;;9.90;94925.00;;;;8340236;28;20227;-68
2022/04/06 19:59:17;;;;;;;2.67;2.45;;;;;9.80;94920.00;;;;8338914;28;20224;-68
2022/04/06 20:03:20;;;;;;;2.65;2.42;;;;;9.70;94925.00;;;;8343700;28;20242;-69
2022/04/06 20:07:25;;;;;;;3.25;2.10;;;;;9.60;94921.00;;;;8339224;28;20236;-69
2022/04/06 20:11:29;;;;;;;3.40;2.38;;;;;9.50;94918.00;;;;8335047;28;20225;-68
2022/04/06 20:15:32;;;;;;;4.03;2.38;;;;;9.50;94912.00;;;;8335490;28;20229;-67
2022/04/06 20:19:35;;;;;;;2.20;2.10;;;;;9.40;94909.00;;;;8327813;28;20308;-68
2022/04/06 20:23:40;;;;;;;3.45;2.70;;;;;9.40;94912.00;;;;8337833;28;20390;-68
2022/04/06 20:27:46;;;;;;;2.08;1.90;;;;;9.20;94907.00;;;;8343364;28;20225;-67
2022/04/06 20:31:49;;;;;;;4.13;2.63;;;;;9.00;94914.00;;;;8340141;28;20225;-69
2022/04/06 20:35:54;;;;;;;3.70;2.60;;;;;8.70;94914.00;;;;8330655;28;20708;-69
2022/04/06 20:39:59;;;;;;;2.27;2.10;;;;;8.60;94915.00;;;;8338776;28;20235;-67
2022/04/06 20:44:04;;;;;;;2.73;2.03;;;;;8.60;94910.00;;;;8340653;28;20246;-68
2022/04/06 20:48:07;;;;;;;2.67;2.47;;;;;8.80;94916.00;;;;8335042;28;20275;-67